sensor_id;sensor_type;location;lat;lon;timestamp;temperature;humidity
20911;DHT22;10615;42.702;23.314;2022-09-06T00:00:21;16.20;98.90
20911;DHT22;10615;42.702;23.314;2022-09-06T00:01:22;16.10;99.10
20911;DHT22;10615;42.702;23.314;2022-09-06T00:02:23;16.10;99.30
20911;DHT22;10615;42.702;23.314;2022-09-06T00:03:24;16.10;99.50
20911;DHT22;10615;42.702;23.314;2022-09-06T00:04:26;16.10;99.70
20911;DHT22;10615;42.702;23.314;2022-09-06T00:05:27;16.10;99.80
20911;DHT22;10615;42.702;23.314;2022-09-06T00:06:28;16.00;99.90
20911;DHT22;10615;42.702;23.314;2022-09-06T00:07:28;16.00;99.90
20911;DHT22;10615;42.702;23.314;2022-09-06T00:08:29;16.00;99.90
20911;DHT22;10615;42.702;23.314;2022-09-06T00:09:30;16.00;99.90
20911;DHT22;10615;42.702;23.314;2022-09-06T00:10:31;16.00;99.90
20911;DHT22;10615;42.702;23.314;2022-09-06T00:11:32;16.00;99.90
20911;DHT22;10615;42.702;23.314;2022-09-06T00:12:32;16.00;99.90
20911;DHT22;10615;42.702;23.314;2022-09-06T00:13:33;16.00;99.90
20911;DHT22;10615;42.702;23.314;2022-09-06T00:14:34;15.90;99.90
20911;DHT22;10615;42.702;23.314;2022-09-06T00:15:35;16.00;99.90
20911;DHT22;10615;42.702;23.314;2022-09-06T00:16:36;16.00;99.90
20911;DHT22;10615;42.702;23.314;2022-09-06T00:17:39;16.00;99.90
20911;DHT22;10615;42.702;23.314;2022-09-06T00:18:40;16.00;99.90
20911;DHT22;10615;42.702;23.314;2022-09-06T00:19:41;16.00;99.90
20911;DHT22;10615;42.702;23.314;2022-09-06T00:20:42;16.00;99.80
20911;DHT22;10615;42.702;23.314;2022-09-06T00:21:42;16.00;99.70
20911;DHT22;10615;42.702;23.314;2022-09-06T00:22:43;16.00;99.60
20911;DHT22;10615;42.702;23.314;2022-09-06T00:23:43;16.00;99.50
20911;DHT22;10615;42.702;23.314;2022-09-06T00:24:44;16.10;99.40
20911;DHT22;10615;42.702;23.314;2022-09-06T00:25:44;16.00;99.30
20911;DHT22;10615;42.702;23.314;2022-09-06T00:26:45;16.00;99.20
20911;DHT22;10615;42.702;23.314;2022-09-06T00:27:45;16.10;99.10
20911;DHT22;10615;42.702;23.314;2022-09-06T00:28:46;16.10;99.10
20911;DHT22;10615;42.702;23.314;2022-09-06T00:29:47;16.00;99.10
20911;DHT22;10615;42.702;23.314;2022-09-06T00:30:47;16.00;99.00
20911;DHT22;10615;42.702;23.314;2022-09-06T00:31:48;16.10;99.00
20911;DHT22;10615;42.702;23.314;2022-09-06T00:32:49;16.10;99.00
20911;DHT22;10615;42.702;23.314;2022-09-06T00:33:49;16.10;99.00
20911;DHT22;10615;42.702;23.314;2022-09-06T00:34:50;16.00;99.00
20911;DHT22;10615;42.702;23.314;2022-09-06T00:35:56;16.10;99.00
20911;DHT22;10615;42.702;23.314;2022-09-06T00:36:57;16.00;99.40
20911;DHT22;10615;42.702;23.314;2022-09-06T00:37:58;16.00;99.10
20911;DHT22;10615;42.702;23.314;2022-09-06T00:38:59;16.00;99.10
20911;DHT22;10615;42.702;23.314;2022-09-06T00:40:00;16.00;99.10
20911;DHT22;10615;42.702;23.314;2022-09-06T00:41:01;16.00;99.00
20911;DHT22;10615;42.702;23.314;2022-09-06T00:42:01;16.00;98.90
20911;DHT22;10615;42.702;23.314;2022-09-06T00:43:02;16.00;98.80
20911;DHT22;10615;42.702;23.314;2022-09-06T00:44:03;16.00;98.80
20911;DHT22;10615;42.702;23.314;2022-09-06T00:45:04;16.00;98.70
20911;DHT22;10615;42.702;23.314;2022-09-06T00:46:07;15.90;98.70
20911;DHT22;10615;42.702;23.314;2022-09-06T00:47:08;15.90;98.70
20911;DHT22;10615;42.702;23.314;2022-09-06T00:48:08;15.90;98.70
20911;DHT22;10615;42.702;23.314;2022-09-06T00:49:16;15.90;98.70
20911;DHT22;10615;42.702;23.314;2022-09-06T00:50:23;15.90;98.70
20911;DHT22;10615;42.702;23.314;2022-09-06T00:51:24;15.90;98.90
20911;DHT22;10615;42.702;23.314;2022-09-06T00:52:26;15.90;99.00
20911;DHT22;10615;42.702;23.314;2022-09-06T00:53:26;15.80;99.00
20911;DHT22;10615;42.702;23.314;2022-09-06T00:54:27;15.80;99.20
20911;DHT22;10615;42.702;23.314;2022-09-06T00:55:28;15.80;99.30
20911;DHT22;10615;42.702;23.314;2022-09-06T00:56:28;15.80;99.20
20911;DHT22;10615;42.702;23.314;2022-09-06T00:57:30;15.80;99.30
20911;DHT22;10615;42.702;23.314;2022-09-06T00:58:32;15.80;99.40
20911;DHT22;10615;42.702;23.314;2022-09-06T00:59:33;15.80;99.40
20911;DHT22;10615;42.702;23.314;2022-09-06T01:00:35;15.70;99.60
20911;DHT22;10615;42.702;23.314;2022-09-06T01:01:35;15.70;99.90
20911;DHT22;10615;42.702;23.314;2022-09-06T01:02:36;15.80;99.90
20911;DHT22;10615;42.702;23.314;2022-09-06T01:03:37;15.80;99.90
20911;DHT22;10615;42.702;23.314;2022-09-06T01:04:40;15.80;99.90
20911;DHT22;10615;42.702;23.314;2022-09-06T01:05:50;15.70;99.90
20911;DHT22;10615;42.702;23.314;2022-09-06T01:06:56;15.80;99.90
20911;DHT22;10615;42.702;23.314;2022-09-06T01:08:07;15.80;99.90
20911;DHT22;10615;42.702;23.314;2022-09-06T01:19:01;15.80;99.90
20911;DHT22;10615;42.702;23.314;2022-09-06T01:29:33;15.70;99.90
20911;DHT22;10615;42.702;23.314;2022-09-06T01:30:36;15.70;99.90
20911;DHT22;10615;42.702;23.314;2022-09-06T01:33:53;15.70;99.90
20911;DHT22;10615;42.702;23.314;2022-09-06T01:35:08;15.70;99.90
20911;DHT22;10615;42.702;23.314;2022-09-06T01:36:13;15.70;99.90
20911;DHT22;10615;42.702;23.314;2022-09-06T01:37:15;15.70;99.90
20911;DHT22;10615;42.702;23.314;2022-09-06T01:38:16;15.60;99.90
20911;DHT22;10615;42.702;23.314;2022-09-06T01:39:22;15.60;99.90
20911;DHT22;10615;42.702;23.314;2022-09-06T01:40:23;15.60;99.90
20911;DHT22;10615;42.702;23.314;2022-09-06T01:41:24;15.60;99.90
20911;DHT22;10615;42.702;23.314;2022-09-06T01:42:25;15.60;99.90
20911;DHT22;10615;42.702;23.314;2022-09-06T01:43:29;15.60;99.90
20911;DHT22;10615;42.702;23.314;2022-09-06T01:44:30;15.60;99.90
20911;DHT22;10615;42.702;23.314;2022-09-06T01:45:38;15.50;99.90
20911;DHT22;10615;42.702;23.314;2022-09-06T01:46:43;15.50;99.90
20911;DHT22;10615;42.702;23.314;2022-09-06T01:49:09;15.50;99.90
20911;DHT22;10615;42.702;23.314;2022-09-06T01:51:36;15.50;99.90
20911;DHT22;10615;42.702;23.314;2022-09-06T02:00:58;15.50;99.90
20911;DHT22;10615;42.702;23.314;2022-09-06T02:03:53;15.50;99.90
20911;DHT22;10615;42.702;23.314;2022-09-06T02:04:48;15.50;99.90
20911;DHT22;10615;42.702;23.314;2022-09-06T02:05:53;15.50;99.90
20911;DHT22;10615;42.702;23.314;2022-09-06T02:06:58;15.50;99.90
20911;DHT22;10615;42.702;23.314;2022-09-06T02:08:00;15.50;99.90
20911;DHT22;10615;42.702;23.314;2022-09-06T02:09:08;15.50;99.90
20911;DHT22;10615;42.702;23.314;2022-09-06T02:10:32;15.60;99.90
20911;DHT22;10615;42.702;23.314;2022-09-06T02:11:32;15.60;99.90
20911;DHT22;10615;42.702;23.314;2022-09-06T02:12:36;15.60;99.90
20911;DHT22;10615;42.702;23.314;2022-09-06T02:13:40;15.60;99.90
20911;DHT22;10615;42.702;23.314;2022-09-06T02:14:49;15.60;99.90
20911;DHT22;10615;42.702;23.314;2022-09-06T02:15:51;15.60;99.90
20911;DHT22;10615;42.702;23.314;2022-09-06T02:16:53;15.60;99.90
20911;DHT22;10615;42.702;23.314;2022-09-06T02:17:57;15.50;99.90
20911;DHT22;10615;42.702;23.314;2022-09-06T02:18:59;15.60;99.90
20911;DHT22;10615;42.702;23.314;2022-09-06T02:21:03;15.50;99.90
20911;DHT22;10615;42.702;23.314;2022-09-06T02:22:06;15.50;99.90
20911;DHT22;10615;42.702;23.314;2022-09-06T02:23:08;15.50;99.90
20911;DHT22;10615;42.702;23.314;2022-09-06T02:24:10;15.50;99.90
20911;DHT22;10615;42.702;23.314;2022-09-06T02:25:15;15.50;99.90
20911;DHT22;10615;42.702;23.314;2022-09-06T02:26:22;15.50;99.90
20911;DHT22;10615;42.702;23.314;2022-09-06T02:27:24;15.50;99.90
20911;DHT22;10615;42.702;23.314;2022-09-06T02:28:24;15.50;99.90
20911;DHT22;10615;42.702;23.314;2022-09-06T02:29:25;15.50;99.90
20911;DHT22;10615;42.702;23.314;2022-09-06T02:30:26;15.50;99.90
20911;DHT22;10615;42.702;23.314;2022-09-06T02:31:31;15.50;99.90
20911;DHT22;10615;42.702;23.314;2022-09-06T02:32:34;15.50;99.90
20911;DHT22;10615;42.702;23.314;2022-09-06T02:33:37;15.50;99.90
20911;DHT22;10615;42.702;23.314;2022-09-06T02:34:38;15.50;99.90
20911;DHT22;10615;42.702;23.314;2022-09-06T02:35:41;15.40;99.90
20911;DHT22;10615;42.702;23.314;2022-09-06T02:36:42;15.40;99.90
20911;DHT22;10615;42.702;23.314;2022-09-06T02:37:42;15.40;99.90
20911;DHT22;10615;42.702;23.314;2022-09-06T02:38:43;15.40;99.90
20911;DHT22;10615;42.702;23.314;2022-09-06T02:39:44;15.40;99.90
20911;DHT22;10615;42.702;23.314;2022-09-06T02:40:45;15.40;99.90
20911;DHT22;10615;42.702;23.314;2022-09-06T02:41:46;15.40;99.90
20911;DHT22;10615;42.702;23.314;2022-09-06T02:42:47;15.40;99.90
20911;DHT22;10615;42.702;23.314;2022-09-06T02:43:48;15.40;99.90
20911;DHT22;10615;42.702;23.314;2022-09-06T02:44:49;15.40;99.90
20911;DHT22;10615;42.702;23.314;2022-09-06T02:45:49;15.40;99.90
20911;DHT22;10615;42.702;23.314;2022-09-06T02:46:50;15.40;99.90
20911;DHT22;10615;42.702;23.314;2022-09-06T02:47:50;15.30;99.90
20911;DHT22;10615;42.702;23.314;2022-09-06T02:48:51;15.40;99.90
20911;DHT22;10615;42.702;23.314;2022-09-06T02:49:51;15.40;99.90
20911;DHT22;10615;42.702;23.314;2022-09-06T02:50:52;15.30;99.90
20911;DHT22;10615;42.702;23.314;2022-09-06T02:51:52;15.30;99.90
20911;DHT22;10615;42.702;23.314;2022-09-06T02:53:12;15.30;99.90
20911;DHT22;10615;42.702;23.314;2022-09-06T02:54:13;15.30;99.90
20911;DHT22;10615;42.702;23.314;2022-09-06T02:55:13;15.30;99.90
20911;DHT22;10615;42.702;23.314;2022-09-06T02:56:14;15.30;99.90
20911;DHT22;10615;42.702;23.314;2022-09-06T02:57:14;15.30;99.90
20911;DHT22;10615;42.702;23.314;2022-09-06T02:58:15;15.30;99.90
20911;DHT22;10615;42.702;23.314;2022-09-06T02:59:15;15.20;99.90
20911;DHT22;10615;42.702;23.314;2022-09-06T03:00:16;15.20;99.90
20911;DHT22;10615;42.702;23.314;2022-09-06T03:01:16;15.20;99.90
20911;DHT22;10615;42.702;23.314;2022-09-06T03:02:17;15.20;99.90
20911;DHT22;10615;42.702;23.314;2022-09-06T03:03:18;15.20;99.90
20911;DHT22;10615;42.702;23.314;2022-09-06T03:04:19;15.20;99.90
20911;DHT22;10615;42.702;23.314;2022-09-06T03:05:20;15.20;99.90
20911;DHT22;10615;42.702;23.314;2022-09-06T03:06:21;15.20;99.90
20911;DHT22;10615;42.702;23.314;2022-09-06T03:07:21;15.20;99.90
20911;DHT22;10615;42.702;23.314;2022-09-06T03:08:22;15.10;99.90
20911;DHT22;10615;42.702;23.314;2022-09-06T03:09:24;15.10;99.90
20911;DHT22;10615;42.702;23.314;2022-09-06T03:10:25;15.20;99.90
20911;DHT22;10615;42.702;23.314;2022-09-06T03:11:26;15.20;99.90
20911;DHT22;10615;42.702;23.314;2022-09-06T03:12:27;15.20;99.90
20911;DHT22;10615;42.702;23.314;2022-09-06T03:13:27;15.20;99.90
20911;DHT22;10615;42.702;23.314;2022-09-06T03:14:28;15.10;99.90
20911;DHT22;10615;42.702;23.314;2022-09-06T03:15:28;15.20;99.90
20911;DHT22;10615;42.702;23.314;2022-09-06T03:16:29;15.10;99.90
20911;DHT22;10615;42.702;23.314;2022-09-06T03:17:29;15.10;99.90
20911;DHT22;10615;42.702;23.314;2022-09-06T03:18:30;15.10;99.90
20911;DHT22;10615;42.702;23.314;2022-09-06T03:19:31;15.10;99.90
20911;DHT22;10615;42.702;23.314;2022-09-06T03:20:31;15.00;99.90
20911;DHT22;10615;42.702;23.314;2022-09-06T03:21:32;15.10;99.90
20911;DHT22;10615;42.702;23.314;2022-09-06T03:22:32;15.00;99.90
20911;DHT22;10615;42.702;23.314;2022-09-06T03:23:33;15.00;99.90
20911;DHT22;10615;42.702;23.314;2022-09-06T03:24:33;15.00;99.90
20911;DHT22;10615;42.702;23.314;2022-09-06T03:25:34;15.00;99.90
20911;DHT22;10615;42.702;23.314;2022-09-06T03:26:35;15.00;99.90
20911;DHT22;10615;42.702;23.314;2022-09-06T03:27:35;15.00;99.90
20911;DHT22;10615;42.702;23.314;2022-09-06T03:28:36;15.00;99.90
20911;DHT22;10615;42.702;23.314;2022-09-06T03:29:36;15.00;99.90
20911;DHT22;10615;42.702;23.314;2022-09-06T03:30:37;15.00;99.90
20911;DHT22;10615;42.702;23.314;2022-09-06T03:31:38;15.00;99.90
20911;DHT22;10615;42.702;23.314;2022-09-06T03:32:39;15.00;99.90
20911;DHT22;10615;42.702;23.314;2022-09-06T03:33:39;15.00;99.90
20911;DHT22;10615;42.702;23.314;2022-09-06T03:34:40;15.00;99.90
20911;DHT22;10615;42.702;23.314;2022-09-06T03:35:47;15.00;99.90
20911;DHT22;10615;42.702;23.314;2022-09-06T03:36:48;15.00;99.90
20911;DHT22;10615;42.702;23.314;2022-09-06T03:37:48;15.00;99.90
20911;DHT22;10615;42.702;23.314;2022-09-06T03:38:49;15.00;99.90
20911;DHT22;10615;42.702;23.314;2022-09-06T03:39:50;15.00;99.90
20911;DHT22;10615;42.702;23.314;2022-09-06T03:40:51;15.00;99.90
20911;DHT22;10615;42.702;23.314;2022-09-06T03:41:52;15.00;99.90
20911;DHT22;10615;42.702;23.314;2022-09-06T03:42:52;15.00;99.90
20911;DHT22;10615;42.702;23.314;2022-09-06T03:43:53;15.00;99.90
20911;DHT22;10615;42.702;23.314;2022-09-06T03:44:53;15.00;99.90
20911;DHT22;10615;42.702;23.314;2022-09-06T03:45:55;15.00;99.90
20911;DHT22;10615;42.702;23.314;2022-09-06T03:46:58;15.00;99.90
20911;DHT22;10615;42.702;23.314;2022-09-06T03:47:59;15.00;99.90
20911;DHT22;10615;42.702;23.314;2022-09-06T03:48:59;15.00;99.90
20911;DHT22;10615;42.702;23.314;2022-09-06T03:50:01;15.00;99.90
20911;DHT22;10615;42.702;23.314;2022-09-06T03:51:01;15.00;99.90
20911;DHT22;10615;42.702;23.314;2022-09-06T03:52:02;14.90;99.90
20911;DHT22;10615;42.702;23.314;2022-09-06T03:53:03;15.00;99.90
20911;DHT22;10615;42.702;23.314;2022-09-06T03:54:03;15.00;99.90
20911;DHT22;10615;42.702;23.314;2022-09-06T03:55:04;14.90;99.90
20911;DHT22;10615;42.702;23.314;2022-09-06T03:56:05;15.00;99.90
20911;DHT22;10615;42.702;23.314;2022-09-06T03:57:05;14.90;99.90
20911;DHT22;10615;42.702;23.314;2022-09-06T03:58:06;14.90;99.90
20911;DHT22;10615;42.702;23.314;2022-09-06T03:59:06;14.90;99.90
20911;DHT22;10615;42.702;23.314;2022-09-06T04:00:07;14.90;99.90
20911;DHT22;10615;42.702;23.314;2022-09-06T04:01:09;14.90;99.90
20911;DHT22;10615;42.702;23.314;2022-09-06T04:02:10;14.90;99.90
20911;DHT22;10615;42.702;23.314;2022-09-06T04:03:11;14.90;99.90
20911;DHT22;10615;42.702;23.314;2022-09-06T04:04:11;15.00;99.90
20911;DHT22;10615;42.702;23.314;2022-09-06T04:05:12;15.00;99.90
20911;DHT22;10615;42.702;23.314;2022-09-06T04:06:13;15.10;99.90
20911;DHT22;10615;42.702;23.314;2022-09-06T04:07:13;15.20;99.90
20911;DHT22;10615;42.702;23.314;2022-09-06T04:08:14;15.40;99.90
20911;DHT22;10615;42.702;23.314;2022-09-06T04:09:14;15.60;99.90
20911;DHT22;10615;42.702;23.314;2022-09-06T04:10:15;15.70;99.90
20911;DHT22;10615;42.702;23.314;2022-09-06T04:11:16;15.90;99.90
20911;DHT22;10615;42.702;23.314;2022-09-06T04:12:16;16.10;99.90
20911;DHT22;10615;42.702;23.314;2022-09-06T04:13:17;16.40;99.90
20911;DHT22;10615;42.702;23.314;2022-09-06T04:14:17;16.60;99.90
20911;DHT22;10615;42.702;23.314;2022-09-06T04:15:18;16.90;99.90
20911;DHT22;10615;42.702;23.314;2022-09-06T04:16:18;17.10;99.40
20911;DHT22;10615;42.702;23.314;2022-09-06T04:17:19;17.40;98.40
20911;DHT22;10615;42.702;23.314;2022-09-06T04:18:20;17.60;97.10
20911;DHT22;10615;42.702;23.314;2022-09-06T04:19:20;17.90;96.10
20911;DHT22;10615;42.702;23.314;2022-09-06T04:20:21;18.20;95.10
20911;DHT22;10615;42.702;23.314;2022-09-06T04:21:21;18.50;94.00
20911;DHT22;10615;42.702;23.314;2022-09-06T04:22:22;18.70;93.00
20911;DHT22;10615;42.702;23.314;2022-09-06T04:23:23;19.10;92.10
20911;DHT22;10615;42.702;23.314;2022-09-06T04:24:24;19.40;91.10
20911;DHT22;10615;42.702;23.314;2022-09-06T04:25:24;19.70;90.20
20911;DHT22;10615;42.702;23.314;2022-09-06T04:26:25;20.00;88.50
20911;DHT22;10615;42.702;23.314;2022-09-06T04:27:26;20.30;86.80
20911;DHT22;10615;42.702;23.314;2022-09-06T04:28:26;20.60;84.50
20911;DHT22;10615;42.702;23.314;2022-09-06T04:29:27;20.90;82.80
20911;DHT22;10615;42.702;23.314;2022-09-06T04:30:28;21.20;80.80
20911;DHT22;10615;42.702;23.314;2022-09-06T04:31:28;21.40;79.20
20911;DHT22;10615;42.702;23.314;2022-09-06T04:32:29;21.60;77.80
20911;DHT22;10615;42.702;23.314;2022-09-06T04:33:32;22.00;76.60
20911;DHT22;10615;42.702;23.314;2022-09-06T04:34:33;22.20;75.00
20911;DHT22;10615;42.702;23.314;2022-09-06T04:35:34;22.40;73.70
20911;DHT22;10615;42.702;23.314;2022-09-06T04:36:34;22.70;72.40
20911;DHT22;10615;42.702;23.314;2022-09-06T04:37:35;23.00;71.40
20911;DHT22;10615;42.702;23.314;2022-09-06T04:38:37;23.30;70.20
20911;DHT22;10615;42.702;23.314;2022-09-06T04:39:37;23.60;69.00
20911;DHT22;10615;42.702;23.314;2022-09-06T04:40:38;23.90;67.90
20911;DHT22;10615;42.702;23.314;2022-09-06T04:41:38;24.20;66.80
20911;DHT22;10615;42.702;23.314;2022-09-06T04:42:39;24.50;65.20
20911;DHT22;10615;42.702;23.314;2022-09-06T04:43:40;24.70;64.30
20911;DHT22;10615;42.702;23.314;2022-09-06T04:44:40;25.10;63.30
20911;DHT22;10615;42.702;23.314;2022-09-06T04:45:42;25.40;62.30
20911;DHT22;10615;42.702;23.314;2022-09-06T04:46:43;25.60;61.10
20911;DHT22;10615;42.702;23.314;2022-09-06T04:47:43;26.00;60.10
20911;DHT22;10615;42.702;23.314;2022-09-06T04:48:44;26.20;59.20
20911;DHT22;10615;42.702;23.314;2022-09-06T04:49:45;26.50;58.60
20911;DHT22;10615;42.702;23.314;2022-09-06T04:50:47;26.70;58.00
20911;DHT22;10615;42.702;23.314;2022-09-06T04:51:47;27.00;57.00
20911;DHT22;10615;42.702;23.314;2022-09-06T04:52:48;27.20;56.40
20911;DHT22;10615;42.702;23.314;2022-09-06T04:53:49;27.40;55.80
20911;DHT22;10615;42.702;23.314;2022-09-06T04:54:49;27.50;55.30
20911;DHT22;10615;42.702;23.314;2022-09-06T04:55:50;27.70;54.80
20911;DHT22;10615;42.702;23.314;2022-09-06T04:56:51;27.90;54.30
20911;DHT22;10615;42.702;23.314;2022-09-06T04:57:51;28.10;53.70
20911;DHT22;10615;42.702;23.314;2022-09-06T04:58:53;28.30;53.30
20911;DHT22;10615;42.702;23.314;2022-09-06T04:59:53;28.50;53.00
20911;DHT22;10615;42.702;23.314;2022-09-06T05:00:54;28.60;52.60
20911;DHT22;10615;42.702;23.314;2022-09-06T05:01:55;28.60;52.50
20911;DHT22;10615;42.702;23.314;2022-09-06T05:02:55;28.50;52.20
20911;DHT22;10615;42.702;23.314;2022-09-06T05:03:56;28.30;52.20
20911;DHT22;10615;42.702;23.314;2022-09-06T05:04:57;28.20;52.40
20911;DHT22;10615;42.702;23.314;2022-09-06T05:07:27;28.10;52.10
20911;DHT22;10615;42.702;23.314;2022-09-06T05:08:28;28.20;51.60
20911;DHT22;10615;42.702;23.314;2022-09-06T05:09:28;28.30;51.40
20911;DHT22;10615;42.702;23.314;2022-09-06T05:10:29;28.50;51.20
20911;DHT22;10615;42.702;23.314;2022-09-06T05:11:30;28.90;50.90
20911;DHT22;10615;42.702;23.314;2022-09-06T05:12:30;29.10;50.40
20911;DHT22;10615;42.702;23.314;2022-09-06T05:13:31;29.20;49.80
20911;DHT22;10615;42.702;23.314;2022-09-06T05:14:32;29.40;49.20
20911;DHT22;10615;42.702;23.314;2022-09-06T05:15:32;29.70;48.70
20911;DHT22;10615;42.702;23.314;2022-09-06T05:16:33;30.10;47.90
20911;DHT22;10615;42.702;23.314;2022-09-06T05:17:33;30.60;47.50
20911;DHT22;10615;42.702;23.314;2022-09-06T05:18:34;31.00;46.50
20911;DHT22;10615;42.702;23.314;2022-09-06T05:19:34;31.40;46.10
20911;DHT22;10615;42.702;23.314;2022-09-06T05:20:35;31.90;45.60
20911;DHT22;10615;42.702;23.314;2022-09-06T05:21:36;32.50;44.90
20911;DHT22;10615;42.702;23.314;2022-09-06T05:22:37;32.90;44.10
20911;DHT22;10615;42.702;23.314;2022-09-06T05:23:37;33.50;43.20
20911;DHT22;10615;42.702;23.314;2022-09-06T05:24:38;34.00;42.40
20911;DHT22;10615;42.702;23.314;2022-09-06T05:25:39;34.40;41.40
20911;DHT22;10615;42.702;23.314;2022-09-06T05:26:39;34.80;40.80
20911;DHT22;10615;42.702;23.314;2022-09-06T05:27:40;35.20;40.20
20911;DHT22;10615;42.702;23.314;2022-09-06T05:28:40;35.60;39.60
20911;DHT22;10615;42.702;23.314;2022-09-06T05:29:41;36.20;39.00
20911;DHT22;10615;42.702;23.314;2022-09-06T05:30:41;36.90;38.00
20911;DHT22;10615;42.702;23.314;2022-09-06T05:31:42;37.60;37.40
20911;DHT22;10615;42.702;23.314;2022-09-06T05:32:42;38.30;36.50
20911;DHT22;10615;42.702;23.314;2022-09-06T05:33:43;38.90;35.30
20911;DHT22;10615;42.702;23.314;2022-09-06T05:34:44;39.30;34.40
20911;DHT22;10615;42.702;23.314;2022-09-06T05:35:44;39.90;33.80
20911;DHT22;10615;42.702;23.314;2022-09-06T05:36:45;40.40;32.90
20911;DHT22;10615;42.702;23.314;2022-09-06T05:37:46;40.80;32.30
20911;DHT22;10615;42.702;23.314;2022-09-06T05:38:46;41.20;31.70
20911;DHT22;10615;42.702;23.314;2022-09-06T05:39:47;41.60;31.00
20911;DHT22;10615;42.702;23.314;2022-09-06T05:40:48;42.00;30.50
20911;DHT22;10615;42.702;23.314;2022-09-06T05:41:49;42.40;29.80
20911;DHT22;10615;42.702;23.314;2022-09-06T05:42:49;42.70;29.40
20911;DHT22;10615;42.702;23.314;2022-09-06T05:43:50;43.00;29.20
20911;DHT22;10615;42.702;23.314;2022-09-06T05:44:50;43.20;28.70
20911;DHT22;10615;42.702;23.314;2022-09-06T05:45:51;43.30;28.50
20911;DHT22;10615;42.702;23.314;2022-09-06T05:46:51;43.50;28.10
20911;DHT22;10615;42.702;23.314;2022-09-06T05:47:52;43.60;27.90
20911;DHT22;10615;42.702;23.314;2022-09-06T05:48:53;43.70;27.60
20911;DHT22;10615;42.702;23.314;2022-09-06T05:49:54;43.80;27.50
20911;DHT22;10615;42.702;23.314;2022-09-06T05:51:02;43.90;27.10
20911;DHT22;10615;42.702;23.314;2022-09-06T05:52:03;43.90;27.10
20911;DHT22;10615;42.702;23.314;2022-09-06T05:53:03;44.00;27.00
20911;DHT22;10615;42.702;23.314;2022-09-06T05:54:04;44.10;26.90
20911;DHT22;10615;42.702;23.314;2022-09-06T05:55:05;44.20;26.70
20911;DHT22;10615;42.702;23.314;2022-09-06T05:56:06;43.90;26.50
20911;DHT22;10615;42.702;23.314;2022-09-06T05:57:07;43.60;26.50
20911;DHT22;10615;42.702;23.314;2022-09-06T05:58:07;43.10;26.40
20911;DHT22;10615;42.702;23.314;2022-09-06T05:59:08;42.40;26.50
20911;DHT22;10615;42.702;23.314;2022-09-06T06:00:08;41.40;26.60
20911;DHT22;10615;42.702;23.314;2022-09-06T06:02:14;39.90;27.80
20911;DHT22;10615;42.702;23.314;2022-09-06T06:03:15;39.30;28.20
20911;DHT22;10615;42.702;23.314;2022-09-06T06:04:15;38.90;28.70
20911;DHT22;10615;42.702;23.314;2022-09-06T06:05:17;38.60;29.20
20911;DHT22;10615;42.702;23.314;2022-09-06T06:06:19;38.30;29.30
20911;DHT22;10615;42.702;23.314;2022-09-06T06:07:20;38.20;29.60
20911;DHT22;10615;42.702;23.314;2022-09-06T06:08:20;38.40;29.90
20911;DHT22;10615;42.702;23.314;2022-09-06T06:09:21;38.80;30.00
20911;DHT22;10615;42.702;23.314;2022-09-06T06:10:21;39.40;30.00
20911;DHT22;10615;42.702;23.314;2022-09-06T06:11:22;40.00;29.90
20911;DHT22;10615;42.702;23.314;2022-09-06T06:12:23;40.80;29.50
20911;DHT22;10615;42.702;23.314;2022-09-06T06:13:23;41.60;28.90
20911;DHT22;10615;42.702;23.314;2022-09-06T06:14:24;42.40;28.40
20911;DHT22;10615;42.702;23.314;2022-09-06T06:15:24;43.10;27.80
20911;DHT22;10615;42.702;23.314;2022-09-06T06:16:25;44.00;27.30
20911;DHT22;10615;42.702;23.314;2022-09-06T06:17:25;44.70;26.60
20911;DHT22;10615;42.702;23.314;2022-09-06T06:18:26;45.30;26.00
20911;DHT22;10615;42.702;23.314;2022-09-06T06:19:27;45.90;25.70
20911;DHT22;10615;42.702;23.314;2022-09-06T06:20:28;46.50;25.20
20911;DHT22;10615;42.702;23.314;2022-09-06T06:21:28;47.00;24.90
20911;DHT22;10615;42.702;23.314;2022-09-06T06:22:29;47.50;24.50
20911;DHT22;10615;42.702;23.314;2022-09-06T06:23:30;48.10;24.30
20911;DHT22;10615;42.702;23.314;2022-09-06T06:24:30;48.60;23.90
20911;DHT22;10615;42.702;23.314;2022-09-06T06:25:31;48.90;23.30
20911;DHT22;10615;42.702;23.314;2022-09-06T06:26:32;49.00;22.90
20911;DHT22;10615;42.702;23.314;2022-09-06T06:27:33;49.20;23.20
20911;DHT22;10615;42.702;23.314;2022-09-06T06:28:36;49.20;22.30
20911;DHT22;10615;42.702;23.314;2022-09-06T06:29:37;49.30;22.20
20911;DHT22;10615;42.702;23.314;2022-09-06T06:30:37;49.40;22.10
20911;DHT22;10615;42.702;23.314;2022-09-06T06:31:38;49.70;22.00
20911;DHT22;10615;42.702;23.314;2022-09-06T06:32:38;49.70;21.50
20911;DHT22;10615;42.702;23.314;2022-09-06T06:33:39;49.70;21.40
20911;DHT22;10615;42.702;23.314;2022-09-06T06:34:40;49.40;21.10
20911;DHT22;10615;42.702;23.314;2022-09-06T06:35:41;49.00;21.50
20911;DHT22;10615;42.702;23.314;2022-09-06T06:36:42;49.10;21.90
20911;DHT22;10615;42.702;23.314;2022-09-06T06:37:43;49.50;21.80
20911;DHT22;10615;42.702;23.314;2022-09-06T06:38:45;50.30;20.90
20911;DHT22;10615;42.702;23.314;2022-09-06T06:39:45;50.70;20.70
20911;DHT22;10615;42.702;23.314;2022-09-06T06:40:46;50.70;21.20
20911;DHT22;10615;42.702;23.314;2022-09-06T06:41:47;51.10;20.90
20911;DHT22;10615;42.702;23.314;2022-09-06T06:42:49;51.40;20.70
20911;DHT22;10615;42.702;23.314;2022-09-06T06:43:51;51.40;19.70
20911;DHT22;10615;42.702;23.314;2022-09-06T06:44:51;51.50;20.30
20911;DHT22;10615;42.702;23.314;2022-09-06T06:45:53;51.70;20.20
20911;DHT22;10615;42.702;23.314;2022-09-06T06:46:53;52.10;20.20
20911;DHT22;10615;42.702;23.314;2022-09-06T06:47:57;52.50;20.00
20911;DHT22;10615;42.702;23.314;2022-09-06T06:48:57;52.60;19.70
20911;DHT22;10615;42.702;23.314;2022-09-06T06:49:58;52.70;19.70
20911;DHT22;10615;42.702;23.314;2022-09-06T06:51:59;53.10;18.80
20911;DHT22;10615;42.702;23.314;2022-09-06T06:53:00;53.30;19.30
20911;DHT22;10615;42.702;23.314;2022-09-06T06:54:01;53.40;19.30
20911;DHT22;10615;42.702;23.314;2022-09-06T06:55:01;53.60;19.10
20911;DHT22;10615;42.702;23.314;2022-09-06T06:57:21;53.80;18.80
20911;DHT22;10615;42.702;23.314;2022-09-06T06:58:21;53.80;18.60
20911;DHT22;10615;42.702;23.314;2022-09-06T06:59:22;53.60;18.60
20911;DHT22;10615;42.702;23.314;2022-09-06T07:00:22;53.40;18.70
20911;DHT22;10615;42.702;23.314;2022-09-06T07:01:24;53.30;18.70